createdAt,value
2022-09-17T00:01:23.232Z,56.05
2022-09-17T00:03:52.619Z,56.06
2022-09-17T00:06:19.938Z,56.29
2022-09-17T00:08:46.550Z,56.21
2022-09-17T00:11:18.625Z,56.07
2022-09-17T00:13:45.399Z,56.03
2022-09-17T00:16:12.518Z,56.08
2022-09-17T00:18:41.840Z,55.97
2022-09-17T00:21:19.063Z,56.30
2022-09-17T00:23:45.552Z,56.34
2022-09-17T00:26:12.071Z,56.55
2022-09-17T00:28:38.778Z,56.65
2022-09-17T00:31:09.898Z,56.56
2022-09-17T00:33:37.181Z,56.57
2022-09-17T00:36:05.244Z,56.80
2022-09-17T00:38:32.253Z,56.53
2022-09-17T00:40:58.718Z,56.75
2022-09-17T00:43:41.001Z,57.06
2022-09-17T00:46:42.301Z,56.90
2022-09-17T00:49:26.823Z,56.89
2022-09-17T00:52:00.682Z,56.96
2022-09-17T00:54:28.355Z,57.00
2022-09-17T00:56:55.253Z,57.04
2022-09-17T00:59:23.034Z,57.11
2022-09-17T01:01:50.524Z,57.53
2022-09-17T01:04:23.642Z,57.39
2022-09-17T01:07:05.513Z,57.33
2022-09-17T01:09:37.995Z,57.37
2022-09-17T01:12:23.397Z,57.52
2022-09-17T01:15:03.003Z,57.51
2022-09-17T01:18:16.006Z,57.75
2022-09-17T01:20:48.397Z,57.93
2022-09-17T01:23:30.162Z,57.92
2022-09-17T01:26:36.470Z,57.97
2022-09-17T01:29:41.582Z,57.92
2022-09-17T01:32:13.796Z,58.03
2022-09-17T01:35:24.900Z,58.29
2022-09-17T01:38:06.513Z,58.39
2022-09-17T01:40:53.551Z,58.30
2022-09-17T01:43:44.561Z,58.31
2022-09-17T01:46:21.919Z,58.40
2022-09-17T01:48:53.241Z,58.65
2022-09-17T01:51:24.289Z,58.51
2022-09-17T01:54:03.969Z,58.45
2022-09-17T01:56:41.625Z,58.33
2022-09-17T01:59:16.653Z,58.34
2022-09-17T02:01:48.004Z,58.61
2022-09-17T02:04:23.337Z,58.67
2022-09-17T02:07:04.737Z,58.59
2022-09-17T02:09:43.318Z,58.61
2022-09-17T02:12:19.179Z,58.76
2022-09-17T02:14:53.951Z,58.98
2022-09-17T02:17:29.671Z,58.74
2022-09-17T02:19:56.643Z,58.65
2022-09-17T02:22:30.028Z,58.69
2022-09-17T02:25:20.250Z,58.83
2022-09-17T02:27:49.864Z,58.97
2022-09-17T02:30:16.628Z,59.11
2022-09-17T02:32:43.712Z,59.08
2022-09-17T02:35:13.974Z,59.00
2022-09-17T02:37:45.058Z,59.04
2022-09-17T02:40:15.462Z,59.18
2022-09-17T02:43:04.504Z,59.04
2022-09-17T02:45:31.063Z,59.05
2022-09-17T02:48:28.586Z,59.05
2022-09-17T02:50:55.011Z,59.22
2022-09-17T02:53:53.849Z,59.31
2022-09-17T02:56:38.506Z,59.29
2022-09-17T02:59:21.832Z,59.74
2022-09-17T03:01:56.799Z,59.66
2022-09-17T03:04:26.618Z,59.89
2022-09-17T03:06:54.042Z,59.84
2022-09-17T03:09:20.598Z,59.77
2022-09-17T03:11:47.246Z,59.74
2022-09-17T03:14:13.745Z,59.94
2022-09-17T03:16:40.275Z,60.06
2022-09-17T03:19:07.002Z,60.00
2022-09-17T03:21:33.530Z,60.16
2022-09-17T03:24:00.377Z,59.92
2022-09-17T03:26:27.715Z,60.27
2022-09-17T03:28:54.264Z,60.44
2022-09-17T03:31:20.777Z,60.11
2022-09-17T03:33:47.401Z,60.31
2022-09-17T03:36:13.988Z,60.48
2022-09-17T03:38:40.438Z,60.41
2022-09-17T03:41:07.634Z,60.41
2022-09-17T03:43:34.298Z,60.23
2022-09-17T03:46:00.784Z,60.45
2022-09-17T03:48:27.332Z,60.40
2022-09-17T03:50:53.812Z,60.29
2022-09-17T03:53:20.294Z,60.44
2022-09-17T03:55:46.813Z,60.09
2022-09-17T03:58:13.345Z,60.45
2022-09-17T04:00:40.094Z,60.50
2022-09-17T04:03:07.113Z,60.18
2022-09-17T04:05:33.748Z,60.45
2022-09-17T04:08:00.197Z,60.32
2022-09-17T04:10:26.748Z,60.47
2022-09-17T04:12:53.230Z,60.33
2022-09-17T04:15:19.674Z,60.56
2022-09-17T04:17:46.151Z,60.57
2022-09-17T04:20:12.638Z,60.55
2022-09-17T04:22:39.223Z,60.80
2022-09-17T04:25:06.298Z,60.64
2022-09-17T04:27:32.757Z,60.68
2022-09-17T04:29:59.300Z,60.78
2022-09-17T04:32:25.781Z,60.77
2022-09-17T04:34:52.241Z,60.80
2022-09-17T04:37:19.867Z,60.97
2022-09-17T04:39:46.357Z,60.85
2022-09-17T04:42:12.826Z,61.12
2022-09-17T04:44:39.279Z,61.20
2022-09-17T04:47:05.864Z,61.19
2022-09-17T04:49:32.826Z,61.28
2022-09-17T04:51:59.283Z,61.19
2022-09-17T04:54:25.797Z,61.41
2022-09-17T04:56:52.310Z,61.50
2022-09-17T04:59:18.845Z,61.23
2022-09-17T05:01:45.454Z,61.37
2022-09-17T05:04:12.064Z,61.44
2022-09-17T05:06:38.558Z,61.43
2022-09-17T05:09:05.054Z,61.51
2022-09-17T05:11:31.501Z,61.48
2022-09-17T05:13:57.997Z,61.45
2022-09-17T05:16:24.637Z,61.61
2022-09-17T05:18:51.759Z,61.67
2022-09-17T05:21:18.982Z,61.48
2022-09-17T05:23:45.453Z,61.66
2022-09-17T05:26:12.246Z,61.69
2022-09-17T05:28:38.846Z,61.65
2022-09-17T05:31:05.793Z,61.61
2022-09-17T05:33:32.310Z,61.56
2022-09-17T05:35:59.885Z,61.44
2022-09-17T05:38:26.821Z,61.48
2022-09-17T05:40:53.283Z,61.44
2022-09-17T05:43:19.821Z,61.55
2022-09-17T05:45:46.821Z,61.45
2022-09-17T05:48:15.089Z,61.38
2022-09-17T05:50:41.936Z,61.43
2022-09-17T05:53:12.856Z,61.60
2022-09-17T05:55:40.513Z,61.42
2022-09-17T05:58:11.194Z,61.34
2022-09-17T06:00:37.754Z,61.43
2022-09-17T06:03:04.442Z,61.33
2022-09-17T06:05:30.942Z,61.40
2022-09-17T06:07:57.474Z,61.57
2022-09-17T06:10:23.930Z,61.48
2022-09-17T06:12:56.551Z,61.38
2022-09-17T06:15:23.267Z,61.38
2022-09-17T06:17:49.813Z,61.31
2022-09-17T06:20:16.511Z,61.38
2022-09-17T06:22:43.282Z,61.39
2022-09-17T06:25:09.933Z,61.25
2022-09-17T06:27:36.490Z,61.15
2022-09-17T06:30:03.712Z,61.54
2022-09-17T06:32:30.433Z,61.52
2022-09-17T06:34:57.585Z,61.48
2022-09-17T06:37:32.239Z,61.57
2022-09-17T06:39:59.460Z,61.33
2022-09-17T06:42:27.221Z,61.61
2022-09-17T06:44:53.882Z,61.47
2022-09-17T06:47:20.876Z,61.44
2022-09-17T06:49:47.333Z,61.56
2022-09-17T06:52:13.893Z,61.44
2022-09-17T06:54:40.341Z,61.48
2022-09-17T06:57:06.793Z,61.76
2022-09-17T06:59:33.281Z,61.69
2022-09-17T07:01:59.835Z,61.86
2022-09-17T07:04:26.361Z,61.58
2022-09-17T07:06:52.882Z,61.32
2022-09-17T07:09:19.457Z,61.67
2022-09-17T07:11:45.971Z,61.52
2022-09-17T07:14:12.466Z,61.29
2022-09-17T07:16:39.180Z,61.35
2022-09-17T07:19:06.844Z,61.62
2022-09-17T07:21:33.426Z,61.44
2022-09-17T07:23:59.882Z,61.27
2022-09-17T07:26:26.393Z,61.36
2022-09-17T07:28:52.933Z,61.28
2022-09-17T07:31:19.449Z,61.11
2022-09-17T07:33:45.984Z,61.21
2022-09-17T07:36:14.880Z,61.10
2022-09-17T07:38:41.543Z,61.00
2022-09-17T07:41:13.241Z,60.94
2022-09-17T07:43:40.789Z,60.92
2022-09-17T07:46:10.430Z,60.73
2022-09-17T07:48:36.930Z,60.73
2022-09-17T07:51:03.423Z,60.73
2022-09-17T07:53:30.061Z,60.71
2022-09-17T07:56:00.774Z,60.50
2022-09-17T07:58:33.608Z,60.86
2022-09-17T08:01:04.939Z,60.79
2022-09-17T08:03:31.530Z,60.82
2022-09-17T08:06:12.687Z,61.13
2022-09-17T08:08:39.928Z,61.11
2022-09-17T08:11:09.743Z,61.00
2022-09-17T08:13:36.498Z,60.76
2022-09-17T08:16:13.245Z,60.67
2022-09-17T08:18:40.336Z,60.49
2022-09-17T08:21:09.646Z,60.31
2022-09-17T08:23:37.907Z,60.07
2022-09-17T08:26:08.501Z,60.03
2022-09-17T08:28:35.812Z,60.08
2022-09-17T08:31:08.247Z,59.69
2022-09-17T08:33:39.507Z,59.71
2022-09-17T08:36:08.565Z,59.41
2022-09-17T08:38:39.322Z,59.30
2022-09-17T08:41:29.203Z,59.00
2022-09-17T08:44:04.852Z,58.68
2022-09-17T08:46:34.017Z,58.56
2022-09-17T08:49:16.316Z,58.63
2022-09-17T08:52:06.306Z,58.27
2022-09-17T08:55:06.906Z,57.97
2022-09-17T08:58:01.880Z,57.82
2022-09-17T09:00:39.073Z,57.44
2022-09-17T09:03:23.054Z,56.94
2022-09-17T09:05:53.162Z,56.59
2022-09-17T09:08:19.618Z,56.45
2022-09-17T09:10:48.941Z,56.12
2022-09-17T09:13:18.518Z,55.66
2022-09-17T09:15:49.351Z,55.05
2022-09-17T09:18:20.384Z,54.72
2022-09-17T09:20:55.551Z,54.36
2022-09-17T09:23:33.299Z,53.67
2022-09-17T09:26:18.690Z,53.68
2022-09-17T09:29:08.151Z,52.55
2022-09-17T09:32:17.242Z,52.54
2022-09-17T09:34:45.654Z,51.73
2022-09-17T09:37:28.580Z,51.47
2022-09-17T09:40:01.292Z,50.72
2022-09-17T09:42:33.487Z,50.95
2022-09-17T09:45:21.626Z,50.30
2022-09-17T09:48:26.786Z,50.02
2022-09-17T09:51:26.734Z,49.78
2022-09-17T09:54:08.185Z,48.61
2022-09-17T09:56:56.627Z,48.77
2022-09-17T09:59:23.355Z,48.75
2022-09-17T10:01:50.018Z,48.35
2022-09-17T10:04:26.005Z,47.29
2022-09-17T10:06:54.699Z,47.68
2022-09-17T10:09:22.688Z,47.57
2022-09-17T10:12:06.534Z,47.87
2022-09-17T10:14:37.907Z,47.66
2022-09-17T10:17:20.961Z,47.37
2022-09-17T10:20:17.334Z,47.29
2022-09-17T10:22:47.886Z,46.52
2022-09-17T10:25:28.973Z,46.11
2022-09-17T10:27:57.926Z,46.39
2022-09-17T10:30:25.981Z,46.23
2022-09-17T10:33:11.312Z,45.99
2022-09-17T10:35:37.789Z,45.10
2022-09-17T10:38:04.261Z,45.42
2022-09-17T10:40:32.517Z,44.95
2022-09-17T10:43:28.531Z,45.00
2022-09-17T10:45:58.813Z,44.40
2022-09-17T10:48:29.303Z,43.74
2022-09-17T10:50:57.226Z,43.38
2022-09-17T10:53:26.066Z,43.05
2022-09-17T10:55:55.279Z,43.09
2022-09-17T10:59:03.596Z,42.35
2022-09-17T11:01:49.517Z,41.94
2022-09-17T11:04:29.877Z,41.69
2022-09-17T11:07:30.508Z,40.94
2022-09-17T11:10:27.115Z,39.61
2022-09-17T11:12:56.529Z,38.68
2022-09-17T11:15:26.334Z,38.26
2022-09-17T11:18:22.359Z,37.00
2022-09-17T11:21:26.451Z,35.36
2022-09-17T11:23:56.013Z,33.31
2022-09-17T11:26:36.326Z,32.57
2022-09-17T11:29:21.090Z,31.48
2022-09-17T11:31:53.686Z,30.70
2022-09-17T11:34:27.705Z,30.40
2022-09-17T11:37:23.598Z,29.34
2022-09-17T11:39:57.410Z,29.00
2022-09-17T11:42:47.249Z,28.17
2022-09-17T11:45:32.527Z,28.21
2022-09-17T11:47:58.942Z,28.30
2022-09-17T11:50:28.329Z,28.30
2022-09-17T11:53:14.469Z,27.26
2022-09-17T11:55:52.929Z,27.09
2022-09-17T11:58:34.853Z,27.30
2022-09-17T12:01:07.366Z,26.92
2022-09-17T12:03:43.939Z,26.49
2022-09-17T12:06:18.077Z,27.01
2022-09-17T12:09:00.213Z,26.30
2022-09-17T12:11:36.205Z,26.26
2022-09-17T12:14:16.167Z,26.60
2022-09-17T12:16:46.445Z,26.07
2022-09-17T12:19:33.211Z,26.25
2022-09-17T12:22:24.948Z,26.49
2022-09-17T12:24:52.317Z,25.84
2022-09-17T12:27:43.629Z,26.36
2022-09-17T12:30:12.329Z,26.58
2022-09-17T12:33:10.046Z,26.73
2022-09-17T12:36:05.590Z,26.52
2022-09-17T12:38:44.520Z,26.87
2022-09-17T12:41:32.949Z,26.80
2022-09-17T12:44:14.673Z,26.51
2022-09-17T12:47:03.564Z,27.02
2022-09-17T12:49:48.175Z,27.06
2022-09-17T12:52:30.043Z,26.58
2022-09-17T12:55:15.203Z,27.52
2022-09-17T12:57:59.998Z,27.82
2022-09-17T13:00:27.385Z,27.60
2022-09-17T13:02:53.854Z,27.76
2022-09-17T13:05:26.222Z,27.97
2022-09-17T13:08:14.619Z,28.59
2022-09-17T13:10:48.965Z,28.10
2022-09-17T13:13:33.605Z,27.77
2022-09-17T13:16:21.996Z,28.44
2022-09-17T13:19:16.903Z,28.15
2022-09-17T13:21:56.719Z,28.41
2022-09-17T13:24:27.117Z,27.84
2022-09-17T13:26:55.030Z,28.31
2022-09-17T13:29:43.528Z,28.46
2022-09-17T13:32:30.088Z,28.18
2022-09-17T13:34:56.546Z,28.49
2022-09-17T13:37:24.402Z,28.51
2022-09-17T13:39:51.728Z,28.51
2022-09-17T13:42:28.071Z,28.69
2022-09-17T13:45:18.662Z,28.58
2022-09-17T13:47:58.659Z,29.39
2022-09-17T13:50:27.933Z,29.61
2022-09-17T13:53:06.750Z,29.79
2022-09-17T13:55:39.778Z,29.65
2022-09-17T13:58:09.740Z,29.56
2022-09-17T14:00:59.702Z,30.04
2022-09-17T14:03:29.032Z,30.09
2022-09-17T14:05:56.103Z,30.11
2022-09-17T14:08:31.771Z,29.96
2022-09-17T14:11:01.234Z,29.78
2022-09-17T14:14:03.296Z,29.58
2022-09-17T14:16:40.382Z,29.60
2022-09-17T14:19:16.462Z,30.24
2022-09-17T14:21:46.344Z,30.60
2022-09-17T14:24:52.526Z,30.47
2022-09-17T14:27:42.575Z,30.95
2022-09-17T14:30:19.834Z,30.36
2022-09-17T14:32:59.167Z,30.53
2022-09-17T14:35:41.574Z,30.65
2022-09-17T14:38:21.526Z,30.71
2022-09-17T14:40:57.638Z,30.70
2022-09-17T14:43:42.997Z,30.28
2022-09-17T14:46:22.190Z,30.45
2022-09-17T14:48:49.130Z,31.66
2022-09-17T14:51:18.852Z,30.94
2022-09-17T14:54:06.197Z,31.89
2022-09-17T14:56:34.471Z,31.59
2022-09-17T14:59:01.408Z,31.85
2022-09-17T15:01:29.925Z,32.70
2022-09-17T15:04:29.184Z,32.90
2022-09-17T15:07:09.876Z,34.50
2022-09-17T15:09:36.515Z,34.40
2022-09-17T15:12:04.989Z,32.35
2022-09-17T15:14:35.267Z,31.41
2022-09-17T15:17:04.665Z,32.24
2022-09-17T15:19:36.061Z,32.86
2022-09-17T15:22:13.248Z,33.38
2022-09-17T15:25:18.554Z,34.76
2022-09-17T15:27:46.817Z,36.08
2022-09-17T15:30:16.483Z,36.80
2022-09-17T15:32:51.345Z,34.17
2022-09-17T15:35:21.575Z,35.23
2022-09-17T15:38:18.423Z,35.77
2022-09-17T15:40:41.263Z,34.43
2022-09-17T15:43:24.849Z,33.19
2022-09-17T15:45:51.354Z,33.07
2022-09-17T15:48:39.573Z,33.79
2022-09-17T15:51:22.879Z,34.10
2022-09-17T15:53:58.801Z,34.26
2022-09-17T15:56:29.779Z,34.97
2022-09-17T15:59:06.637Z,34.07
2022-09-17T16:01:33.196Z,34.84
2022-09-17T16:04:01.806Z,35.71
2022-09-17T16:06:28.493Z,35.97
2022-09-17T16:08:57.225Z,37.17
2022-09-17T16:11:25.782Z,38.17
2022-09-17T16:13:54.268Z,36.51
2022-09-17T16:16:27.894Z,36.40
2022-09-17T16:18:54.614Z,35.44
2022-09-17T16:21:21.192Z,36.53
2022-09-17T16:23:47.748Z,36.77
2022-09-17T16:26:17.230Z,37.37
2022-09-17T16:28:45.009Z,37.87
2022-09-17T16:31:14.805Z,38.54
2022-09-17T16:33:41.601Z,39.37
2022-09-17T16:36:08.146Z,39.92
2022-09-17T16:38:35.880Z,39.91
2022-09-17T16:41:05.415Z,39.67
2022-09-17T16:43:33.644Z,39.90
2022-09-17T16:46:10.598Z,40.06
2022-09-17T16:48:37.904Z,40.00
2022-09-17T16:51:08.809Z,40.02
2022-09-17T16:53:35.450Z,40.47
2022-09-17T16:56:02.158Z,40.97
2022-09-17T16:58:28.778Z,41.66
2022-09-17T17:00:55.312Z,41.86
2022-09-17T17:03:21.904Z,41.79
2022-09-17T17:05:48.442Z,41.87
2022-09-17T17:08:14.990Z,42.75
2022-09-17T17:10:41.648Z,42.65
2022-09-17T17:13:08.153Z,42.68
2022-09-17T17:15:34.645Z,42.93
2022-09-17T17:18:01.104Z,43.30
2022-09-17T17:20:27.619Z,43.44
2022-09-17T17:22:55.129Z,43.53
2022-09-17T17:25:23.651Z,44.09
2022-09-17T17:27:50.386Z,44.20
2022-09-17T17:30:17.716Z,44.81
2022-09-17T17:32:48.850Z,44.68
2022-09-17T17:35:15.724Z,44.92
2022-09-17T17:37:42.390Z,45.35
2022-09-17T17:40:10.184Z,46.07
2022-09-17T17:42:39.482Z,46.31
2022-09-17T17:45:07.398Z,46.47
2022-09-17T17:47:34.366Z,46.92
2022-09-17T17:50:00.981Z,47.25
2022-09-17T17:52:28.158Z,47.69
2022-09-17T17:54:54.627Z,47.54
2022-09-17T17:57:21.159Z,47.82
2022-09-17T17:59:47.677Z,47.91
2022-09-17T18:02:14.351Z,48.31
2022-09-17T18:04:40.892Z,49.00
2022-09-17T18:07:07.798Z,50.53
2022-09-17T18:09:34.371Z,50.67
2022-09-17T18:12:00.837Z,53.02
2022-09-17T18:14:27.510Z,52.15
2022-09-17T18:16:54.375Z,51.68
2022-09-17T18:19:20.862Z,51.14
2022-09-17T18:21:50.377Z,51.02
2022-09-17T18:24:17.067Z,50.98
2022-09-17T18:26:43.793Z,50.61
2022-09-17T18:29:11.809Z,50.89
2022-09-17T18:31:38.752Z,50.67
2022-09-17T18:34:09.178Z,50.59
2022-09-17T18:36:36.872Z,50.87
2022-09-17T18:41:52.689Z,50.80
2022-09-17T18:44:21.857Z,50.52
2022-09-17T18:46:50.186Z,50.59
2022-09-17T18:49:16.865Z,50.75
2022-09-17T18:51:43.517Z,50.54
2022-09-17T18:54:12.602Z,50.75
2022-09-17T18:56:40.226Z,50.94
2022-09-17T18:59:08.331Z,50.97
2022-09-17T19:01:35.741Z,50.73
2022-09-17T19:04:02.972Z,51.00
2022-09-17T19:06:31.957Z,51.11
2022-09-17T19:09:03.312Z,51.27
2022-09-17T19:11:30.340Z,51.27
2022-09-17T19:13:56.821Z,51.45
2022-09-17T19:16:23.534Z,51.29
2022-09-17T19:18:50.435Z,51.38
2022-09-17T19:21:19.456Z,51.45
2022-09-17T19:23:49.053Z,51.43
2022-09-17T19:26:21.114Z,51.43
2022-09-17T19:28:47.988Z,51.83
2022-09-17T19:31:16.668Z,51.51
2022-09-17T19:33:44.389Z,51.54
2022-09-17T19:36:14.037Z,51.58
2022-09-17T19:38:40.744Z,51.80
2022-09-17T19:41:12.026Z,51.84
2022-09-17T19:43:39.338Z,51.73
2022-09-17T19:46:08.833Z,51.82
2022-09-17T19:48:38.196Z,51.97
2022-09-17T19:51:06.371Z,51.96
2022-09-17T19:53:33.373Z,52.02
2022-09-17T19:56:03.280Z,52.21
2022-09-17T19:58:29.782Z,52.22
2022-09-17T20:00:58.002Z,52.38
2022-09-17T20:03:25.544Z,52.51
2022-09-17T20:06:01.809Z,52.46
2022-09-17T20:08:28.714Z,52.48
2022-09-17T20:10:55.845Z,52.59
2022-09-17T20:13:23.758Z,52.83
2022-09-17T20:15:50.295Z,52.71
2022-09-17T20:18:21.173Z,52.94
2022-09-17T20:20:50.054Z,52.67
2022-09-17T20:23:16.557Z,52.73
2022-09-17T20:25:44.621Z,53.31
2022-09-17T20:28:11.142Z,52.86
2022-09-17T20:30:37.637Z,52.97
2022-09-17T20:33:04.126Z,53.12
2022-09-17T20:35:30.590Z,53.32
2022-09-17T20:40:44.269Z,52.97
2022-09-17T20:43:10.728Z,53.22
2022-09-17T20:45:37.189Z,53.17
2022-09-17T20:48:03.814Z,53.33
2022-09-17T20:50:30.282Z,53.39
2022-09-17T20:52:56.770Z,53.44
2022-09-17T20:55:23.302Z,53.50
2022-09-17T20:57:50.205Z,53.65
2022-09-17T21:00:21.209Z,53.61
2022-09-17T21:02:52.529Z,53.66
2022-09-17T21:05:19.026Z,53.73
2022-09-17T21:07:45.687Z,53.93
2022-09-17T21:10:13.679Z,53.98
2022-09-17T21:12:40.330Z,54.09
2022-09-17T21:15:07.304Z,54.11
2022-09-17T21:17:34.645Z,54.15
2022-09-17T21:20:01.981Z,54.12
2022-09-17T21:22:28.445Z,54.30
2022-09-17T21:24:55.016Z,54.29
2022-09-17T21:27:21.669Z,54.43
2022-09-17T21:29:48.178Z,54.40
2022-09-17T21:32:14.757Z,54.54
2022-09-17T21:34:41.232Z,54.64
2022-09-17T21:37:07.695Z,54.54
2022-09-17T21:39:35.808Z,54.66
2022-09-17T21:42:02.473Z,55.09
2022-09-17T21:44:28.971Z,55.11
2022-09-17T21:46:57.682Z,55.00
2022-09-17T21:49:25.084Z,55.14
2022-09-17T21:51:52.083Z,55.33
2022-09-17T21:54:18.843Z,55.42
2022-09-17T21:56:46.430Z,55.57
2022-09-17T21:59:14.660Z,55.54
2022-09-17T22:01:46.868Z,55.64
2022-09-17T22:04:16.937Z,55.74
2022-09-17T22:06:44.712Z,55.77
2022-09-17T22:09:23.260Z,56.18
2022-09-17T22:11:50.758Z,55.92
2022-09-17T22:14:22.517Z,56.25
2022-09-17T22:16:52.592Z,56.34
2022-09-17T22:19:20.312Z,56.30
2022-09-17T22:21:49.307Z,56.38
2022-09-17T22:24:17.014Z,56.26
2022-09-17T22:26:46.566Z,56.22
2022-09-17T22:29:18.420Z,56.27
2022-09-17T22:31:46.661Z,56.35
2022-09-17T22:34:16.143Z,56.39
2022-09-17T22:36:43.274Z,56.40
2022-09-17T22:39:10.081Z,56.50
2022-09-17T22:41:42.916Z,56.68
2022-09-17T22:44:12.780Z,56.72
2022-09-17T22:46:40.188Z,56.93
2022-09-17T22:49:10.741Z,56.82
2022-09-17T22:51:38.363Z,56.92
2022-09-17T22:54:06.427Z,56.99
2022-09-17T22:56:34.178Z,57.02
2022-09-17T22:59:00.692Z,56.89
2022-09-17T23:01:30.201Z,57.14
2022-09-17T23:03:58.005Z,57.09
2022-09-17T23:06:30.906Z,57.34
2022-09-17T23:08:58.818Z,57.30
2022-09-17T23:11:28.010Z,57.34
2022-09-17T23:13:57.798Z,57.58
2022-09-17T23:16:25.137Z,57.60
2022-09-17T23:18:51.904Z,57.70
2022-09-17T23:21:19.492Z,57.88
2022-09-17T23:23:48.868Z,57.86
2022-09-17T23:26:18.998Z,58.01
2022-09-17T23:28:45.702Z,57.91
2022-09-17T23:31:15.181Z,58.03
2022-09-17T23:33:42.731Z,58.02
2022-09-17T23:36:21.681Z,58.29
2022-09-17T23:38:48.985Z,58.16
2022-09-17T23:41:27.269Z,58.49
2022-09-17T23:43:59.942Z,58.48
2022-09-17T23:46:29.824Z,58.52
2022-09-17T23:48:56.498Z,58.68
2022-09-17T23:51:25.616Z,58.71
2022-09-17T23:53:54.486Z,58.79
2022-09-17T23:56:24.000Z,58.79
2022-09-17T23:58:50.958Z,58.75
